createdAt,value
2018-07-23T00:02:12.260Z,68.13
2018-07-23T00:04:42.106Z,69.18
2018-07-23T00:07:12.093Z,68.46
2018-07-23T00:09:42.108Z,69.41
2018-07-23T00:12:11.998Z,69.53
2018-07-23T00:14:42.076Z,69.68
2018-07-23T00:17:12.414Z,70.54
2018-07-23T00:19:42.455Z,72.12
2018-07-23T00:22:12.280Z,71.93
2018-07-23T00:24:42.499Z,72.50
2018-07-23T00:27:12.404Z,72.87
2018-07-23T00:29:42.515Z,72.61
2018-07-23T00:32:12.627Z,73.23
2018-07-23T00:34:42.599Z,72.67
2018-07-23T00:37:12.628Z,72.89
2018-07-23T00:39:42.464Z,73.52
2018-07-23T00:42:12.570Z,73.22
2018-07-23T00:44:42.584Z,73.95
2018-07-23T00:47:12.443Z,74.97
2018-07-23T00:49:42.660Z,75.60
2018-07-23T00:52:12.588Z,74.90
2018-07-23T00:54:42.713Z,74.90
2018-07-23T00:57:12.621Z,74.78
2018-07-23T00:59:42.561Z,74.48
2018-07-23T01:02:12.692Z,74.50
2018-07-23T01:04:42.651Z,73.97
2018-07-23T01:07:12.734Z,74.95
2018-07-23T01:09:42.876Z,74.88
2018-07-23T01:12:13.186Z,74.08
2018-07-23T01:14:43.526Z,74.86
2018-07-23T01:17:13.595Z,74.89
2018-07-23T01:19:43.491Z,73.85
2018-07-23T01:22:13.638Z,73.96
2018-07-23T01:24:44.023Z,73.60
2018-07-23T01:27:14.198Z,74.11
2018-07-23T01:29:44.304Z,73.02
2018-07-23T01:32:14.452Z,73.75
2018-07-23T01:34:44.577Z,73.25
2018-07-23T01:37:14.657Z,73.96
2018-07-23T01:39:45.412Z,74.53
2018-07-23T01:42:15.386Z,72.58
2018-07-23T01:44:45.403Z,71.96
2018-07-23T01:47:15.659Z,71.86
2018-07-23T01:49:45.652Z,70.69
2018-07-23T01:52:15.599Z,71.34
2018-07-23T01:54:45.676Z,71.15
2018-07-23T01:57:15.633Z,70.73
2018-07-23T01:59:45.484Z,71.27
2018-07-23T02:02:25.376Z,71.19
2018-07-23T02:04:55.502Z,71.46
2018-07-23T02:07:25.474Z,68.98
2018-07-23T02:09:55.497Z,69.04
2018-07-23T02:12:25.536Z,68.41
2018-07-23T02:14:55.572Z,68.77
2018-07-23T02:17:25.595Z,67.13
2018-07-23T02:19:55.527Z,66.45
2018-07-23T02:22:25.492Z,66.70
2018-07-23T02:24:55.560Z,67.48
2018-07-23T02:27:25.460Z,66.91
2018-07-23T02:29:55.396Z,66.79
2018-07-23T02:32:25.467Z,68.37
2018-07-23T02:34:56.592Z,67.74
2018-07-23T02:37:26.583Z,68.70
2018-07-23T02:39:56.611Z,69.11
2018-07-23T02:42:26.610Z,68.29
2018-07-23T02:44:56.647Z,68.15
2018-07-23T02:47:26.554Z,68.93
2018-07-23T02:49:56.576Z,70.03
2018-07-23T02:52:26.874Z,72.19
2018-07-23T02:54:57.818Z,71.45
2018-07-23T02:57:28.559Z,67.99
2018-07-23T03:00:08.260Z,69.48
2018-07-23T03:02:48.947Z,68.91
2018-07-23T03:05:20.298Z,74.21
2018-07-23T03:07:55.501Z,79.57
2018-07-23T03:10:38.795Z,82.85
2018-07-23T03:13:18.586Z,85.69
2018-07-23T03:15:57.025Z,88.86
2018-07-23T03:18:39.119Z,88.65
2018-07-23T03:21:26.268Z,90.58
2018-07-23T03:24:02.103Z,91.39
2018-07-23T03:26:33.083Z,87.59
2018-07-23T03:29:13.530Z,87.61
2018-07-23T03:35:05.225Z,92.28
2018-07-23T03:37:35.722Z,93.48
2018-07-23T03:40:07.795Z,92.85
2018-07-23T03:42:37.853Z,91.15
2018-07-23T03:45:08.635Z,91.45
2018-07-23T03:47:39.678Z,88.27
2018-07-23T03:50:16.296Z,89.25
2018-07-23T03:52:47.098Z,88.41
2018-07-23T03:55:18.457Z,88.08
2018-07-23T03:57:48.757Z,88.38
2018-07-23T04:00:18.971Z,87.42
2018-07-23T04:02:49.766Z,89.39
2018-07-23T04:05:20.632Z,90.05
2018-07-23T04:07:51.542Z,89.38
2018-07-23T04:10:22.330Z,93.02
2018-07-23T04:12:52.482Z,94.38
2018-07-23T04:15:22.540Z,94.64
2018-07-23T04:18:03.281Z,94.84
2018-07-23T04:20:35.945Z,93.76
2018-07-23T04:23:07.561Z,93.00
2018-07-23T04:25:37.880Z,93.77
2018-07-23T04:28:11.555Z,92.99
2018-07-23T04:30:47.371Z,94.72
2018-07-23T04:36:45.668Z,93.98
2018-07-23T04:39:15.904Z,93.45
2018-07-23T04:41:46.604Z,93.89
2018-07-23T04:44:16.993Z,93.46
2018-07-23T04:46:48.405Z,94.38
2018-07-23T04:49:18.696Z,95.84
2018-07-23T04:51:49.116Z,95.56
2018-07-23T04:54:19.432Z,96.44
2018-07-23T04:56:50.014Z,96.22
2018-07-23T04:59:20.316Z,94.52
2018-07-23T05:01:50.662Z,95.50
2018-07-23T05:04:20.688Z,95.16
2018-07-23T05:06:51.866Z,94.21
2018-07-23T05:09:23.203Z,94.42
2018-07-23T05:11:53.506Z,94.35
2018-07-23T05:14:23.887Z,94.66
2018-07-23T05:16:54.200Z,96.09
2018-07-23T05:19:24.972Z,96.23
2018-07-23T05:22:09.364Z,94.66
2018-07-23T05:24:40.225Z,95.17
2018-07-23T05:27:10.894Z,94.17
2018-07-23T05:29:41.259Z,94.55
2018-07-23T05:32:11.995Z,94.85
2018-07-23T05:34:42.435Z,93.77
2018-07-23T05:37:12.693Z,94.78
2018-07-23T05:39:42.966Z,95.11
2018-07-23T05:42:13.378Z,93.97
2018-07-23T05:44:43.944Z,93.79
2018-07-23T05:47:14.109Z,93.03
2018-07-23T05:49:44.892Z,92.80
2018-07-23T05:52:15.136Z,93.15
2018-07-23T05:54:45.043Z,91.69
2018-07-23T05:57:15.244Z,91.35
2018-07-23T05:59:45.392Z,89.80
2018-07-23T06:02:15.805Z,90.05
2018-07-23T06:04:46.143Z,86.79
2018-07-23T06:07:16.452Z,87.65
2018-07-23T06:09:46.776Z,84.92
2018-07-23T06:12:17.182Z,83.73
2018-07-23T06:14:47.437Z,81.23
2018-07-23T06:17:17.753Z,78.01
2018-07-23T06:19:48.877Z,76.13
2018-07-23T06:22:24.091Z,76.80
2018-07-23T06:24:54.590Z,72.11
2018-07-23T06:27:24.883Z,73.44
2018-07-23T06:29:56.274Z,70.43
2018-07-23T06:32:26.600Z,69.34
2018-07-23T06:34:59.720Z,70.67
2018-07-23T06:37:35.780Z,70.65
2018-07-23T06:40:31.002Z,67.43
2018-07-23T06:43:01.900Z,64.97
2018-07-23T06:45:33.155Z,64.05
2018-07-23T06:48:19.890Z,65.50
2018-07-23T06:50:51.434Z,63.73
2018-07-23T06:53:21.962Z,63.84
2018-07-23T06:55:52.631Z,63.22
2018-07-23T06:58:22.732Z,62.18
2018-07-23T07:00:53.365Z,59.89
2018-07-23T07:03:24.937Z,61.91
2018-07-23T07:05:56.641Z,61.25
2018-07-23T07:08:26.928Z,66.18
2018-07-23T07:10:57.191Z,66.88
2018-07-23T07:13:30.076Z,63.83
2018-07-23T07:16:00.055Z,63.88
2018-07-23T07:18:30.118Z,63.90
2018-07-23T07:21:00.771Z,61.82
2018-07-23T07:26:42.138Z,58.72
2018-07-23T07:29:13.975Z,63.09
2018-07-23T07:31:43.953Z,64.15
2018-07-23T07:34:13.910Z,62.14
2018-07-23T07:36:43.916Z,57.43
2018-07-23T07:39:14.220Z,60.15
2018-07-23T07:41:44.783Z,59.45
2018-07-23T07:44:16.061Z,61.69
2018-07-23T07:46:46.213Z,65.73
2018-07-23T07:49:16.244Z,70.29
2018-07-23T07:51:46.268Z,69.69
2018-07-23T07:54:16.419Z,66.95
2018-07-23T07:56:46.368Z,63.42
2018-07-23T07:59:16.386Z,61.89
2018-07-23T08:01:46.350Z,60.87
2018-07-23T08:04:16.511Z,57.16
2018-07-23T08:07:24.407Z,56.53
2018-07-23T08:09:54.395Z,53.21
2018-07-23T08:12:25.294Z,50.50
2018-07-23T08:14:55.385Z,48.49
2018-07-23T08:17:25.526Z,50.26
2018-07-23T08:19:55.757Z,52.11
2018-07-23T08:22:25.933Z,55.13
2018-07-23T08:24:56.086Z,55.68
2018-07-23T08:27:26.172Z,54.45
2018-07-23T08:29:56.238Z,50.51
2018-07-23T08:32:26.320Z,49.21
2018-07-23T08:34:56.355Z,46.77
2018-07-23T08:37:26.302Z,44.39
2018-07-23T08:39:56.343Z,47.17
2018-07-23T08:42:26.305Z,49.92
2018-07-23T08:44:56.521Z,47.97
2018-07-23T08:47:26.608Z,45.27
2018-07-23T08:49:56.860Z,43.22
2018-07-23T08:52:26.951Z,43.23
2018-07-23T08:54:57.053Z,43.01
2018-07-23T08:57:27.097Z,40.38
2018-07-23T08:59:57.137Z,43.05
2018-07-23T09:02:27.335Z,42.80
2018-07-23T09:04:57.573Z,41.72
2018-07-23T09:07:27.900Z,38.64
2018-07-23T09:09:58.180Z,41.46
2018-07-23T09:12:28.448Z,41.03
2018-07-23T09:14:58.697Z,41.13
2018-07-23T09:17:28.727Z,42.02
2018-07-23T09:19:58.720Z,43.84
2018-07-23T09:22:28.823Z,44.94
2018-07-23T09:24:58.939Z,44.72
2018-07-23T09:27:28.869Z,44.51
2018-07-23T09:29:58.804Z,44.20
2018-07-23T09:32:28.692Z,44.03
2018-07-23T09:34:58.740Z,42.26
2018-07-23T09:37:28.740Z,44.54
2018-07-23T09:39:58.660Z,46.48
2018-07-23T09:42:29.500Z,44.60
2018-07-23T09:44:59.667Z,40.04
2018-07-23T09:47:29.627Z,38.02
2018-07-23T09:49:59.590Z,37.84
2018-07-23T09:52:29.495Z,36.06
2018-07-23T09:55:00.442Z,35.88
2018-07-23T09:57:31.437Z,38.25
2018-07-23T10:00:02.185Z,40.00
2018-07-23T10:02:32.346Z,35.45
2018-07-23T10:05:08.013Z,35.83
2018-07-23T10:07:38.405Z,35.24
2018-07-23T10:10:09.668Z,36.58
2018-07-23T10:12:39.742Z,35.24
2018-07-23T10:15:10.493Z,37.05
2018-07-23T10:17:40.344Z,36.37
2018-07-23T10:20:10.573Z,35.43
2018-07-23T10:22:41.564Z,34.00
2018-07-23T10:25:15.545Z,33.51
2018-07-23T10:27:50.066Z,33.60
2018-07-23T10:30:26.411Z,32.61
2018-07-23T10:32:57.720Z,32.91
2018-07-23T10:35:27.855Z,33.33
2018-07-23T10:37:58.097Z,33.67
2018-07-23T10:40:28.756Z,35.62
2018-07-23T10:42:59.333Z,35.10
2018-07-23T10:45:32.321Z,36.90
2018-07-23T10:48:06.759Z,39.14
2018-07-23T10:50:36.792Z,40.12
2018-07-23T10:53:22.401Z,42.95
2018-07-23T10:55:52.636Z,40.43
2018-07-23T10:58:25.439Z,39.53
2018-07-23T11:00:55.526Z,40.30
2018-07-23T11:03:26.536Z,37.87
2018-07-23T11:05:59.440Z,34.80
2018-07-23T11:08:30.671Z,36.79
2018-07-23T11:11:00.819Z,35.98
2018-07-23T11:13:31.037Z,35.09
2018-07-23T11:16:03.269Z,33.64
2018-07-23T11:18:33.396Z,35.13
2018-07-23T11:21:03.478Z,36.73
2018-07-23T11:23:33.565Z,41.15
2018-07-23T11:26:03.696Z,42.09
2018-07-23T11:28:33.670Z,41.92
2018-07-23T11:31:03.921Z,39.34
2018-07-23T11:33:33.891Z,40.81
2018-07-23T11:36:04.061Z,40.65
2018-07-23T11:38:34.037Z,42.15
2018-07-23T11:41:04.228Z,41.09
2018-07-23T11:43:35.027Z,42.46
2018-07-23T11:46:05.839Z,41.00
2018-07-23T11:48:36.118Z,39.72
2018-07-23T11:51:06.713Z,40.14
2018-07-23T11:53:36.726Z,42.20
2018-07-23T11:56:08.051Z,40.09
2018-07-23T11:58:38.338Z,39.63
2018-07-23T12:01:09.438Z,41.32
2018-07-23T12:03:39.511Z,41.02
2018-07-23T12:06:10.505Z,43.64
2018-07-23T12:08:40.562Z,42.72
2018-07-23T12:11:10.961Z,41.44
2018-07-23T12:13:40.853Z,40.95
2018-07-23T12:16:11.062Z,40.02
2018-07-23T12:18:41.069Z,41.88
2018-07-23T12:21:11.303Z,43.95
2018-07-23T12:23:41.541Z,41.99
2018-07-23T12:26:11.785Z,40.05
2018-07-23T12:28:41.773Z,40.65
2018-07-23T12:31:11.746Z,41.18
2018-07-23T12:33:41.760Z,41.70
2018-07-23T12:36:11.886Z,43.18
2018-07-23T12:38:41.964Z,42.78
2018-07-23T12:41:12.224Z,41.74
2018-07-23T12:43:42.984Z,43.80
2018-07-23T12:46:13.004Z,46.52
2018-07-23T12:48:43.273Z,45.32
2018-07-23T12:51:13.806Z,42.83
2018-07-23T12:53:45.250Z,43.08
2018-07-23T12:56:15.416Z,40.80
2018-07-23T12:58:50.256Z,42.82
2018-07-23T13:01:20.621Z,42.06
2018-07-23T13:03:50.639Z,44.29
2018-07-23T13:06:20.916Z,42.88
2018-07-23T13:08:51.233Z,41.69
2018-07-23T13:32:33.476Z,39.37
2018-07-23T13:35:07.924Z,42.00
2018-07-23T13:37:38.883Z,43.53
2018-07-23T13:40:17.932Z,44.89
2018-07-23T13:42:52.313Z,44.60
2018-07-23T13:45:23.808Z,42.91
2018-07-23T13:47:54.252Z,42.44
2018-07-23T13:50:26.216Z,43.23
2018-07-23T13:52:56.532Z,41.56
2018-07-23T13:55:28.747Z,42.33
2018-07-23T13:57:59.857Z,42.65
2018-07-23T14:00:29.892Z,41.24
2018-07-23T14:03:00.176Z,40.59
2018-07-23T14:05:30.203Z,39.94
2018-07-23T14:08:00.236Z,39.58
2018-07-23T14:10:31.999Z,38.94
2018-07-23T14:13:02.095Z,40.00
2018-07-23T14:15:32.200Z,41.44
2018-07-23T14:18:02.173Z,40.15
2018-07-23T14:20:32.172Z,41.14
2018-07-23T14:23:08.453Z,40.72
2018-07-23T14:25:38.482Z,41.06
2018-07-23T14:28:09.240Z,41.79
2018-07-23T14:30:39.313Z,41.92
2018-07-23T14:33:10.047Z,41.16
2018-07-23T14:35:40.093Z,40.19
2018-07-23T14:38:11.365Z,41.25
2018-07-23T14:40:41.293Z,40.77
2018-07-23T14:43:11.376Z,41.34
2018-07-23T14:45:41.321Z,41.82
2018-07-23T14:48:11.288Z,42.45
2018-07-23T14:50:41.248Z,40.91
2018-07-23T14:53:11.114Z,41.96
2018-07-23T14:55:41.051Z,41.22
2018-07-23T14:58:11.049Z,44.39
2018-07-23T15:00:41.128Z,42.77
2018-07-23T15:03:11.126Z,43.43
2018-07-23T15:05:41.001Z,40.53
2018-07-23T15:08:11.246Z,41.18
2018-07-23T15:10:50.604Z,41.71
2018-07-23T15:13:30.972Z,40.61
2018-07-23T15:16:00.907Z,41.30
2018-07-23T15:18:30.923Z,42.70
2018-07-23T15:21:00.760Z,43.78
2018-07-23T15:23:30.674Z,42.95
2018-07-23T15:26:00.802Z,43.16
2018-07-23T15:28:30.772Z,43.66
2018-07-23T15:31:00.811Z,42.45
2018-07-23T15:33:30.860Z,42.89
2018-07-23T15:36:00.696Z,42.11
2018-07-23T15:38:31.466Z,41.50
2018-07-23T15:47:32.961Z,41.82
2018-07-23T15:50:24.838Z,43.24
2018-07-23T15:52:56.933Z,43.85
2018-07-23T15:55:27.057Z,44.57
2018-07-23T15:57:56.915Z,44.18
2018-07-23T16:00:28.173Z,44.44
2018-07-23T16:03:05.880Z,45.09
2018-07-23T16:05:36.745Z,44.08
2018-07-23T16:08:06.887Z,45.23
2018-07-23T16:10:39.240Z,43.39
2018-07-23T16:13:09.841Z,43.84
2018-07-23T16:15:39.714Z,43.29
2018-07-23T16:18:12.017Z,42.19
2018-07-23T16:20:42.261Z,40.35
2018-07-23T16:23:12.218Z,40.97
2018-07-23T16:25:42.869Z,41.13
2018-07-23T16:28:14.099Z,41.45
2018-07-23T16:30:45.428Z,41.19
2018-07-23T16:33:24.048Z,42.09
2018-07-23T16:36:05.728Z,42.70
2018-07-23T16:38:44.990Z,41.99
2018-07-23T16:41:25.112Z,42.94
2018-07-23T16:43:55.749Z,42.28
2018-07-23T16:46:26.222Z,42.06
2018-07-23T16:48:56.233Z,42.18
2018-07-23T16:51:26.256Z,42.50
2018-07-23T16:53:56.248Z,42.38
2018-07-23T16:56:26.386Z,42.51
2018-07-23T16:58:56.498Z,42.90
2018-07-23T17:01:26.529Z,41.70
2018-07-23T17:04:05.706Z,41.18
2018-07-23T17:06:36.884Z,41.68
2018-07-23T17:09:11.242Z,42.07
2018-07-23T17:11:41.383Z,41.74
2018-07-23T17:14:11.414Z,41.12
2018-07-23T17:16:41.342Z,41.83
2018-07-23T17:19:11.306Z,41.36
2018-07-23T17:21:51.042Z,41.40
2018-07-23T17:24:22.153Z,41.79
2018-07-23T17:26:52.008Z,40.77
2018-07-23T17:29:21.856Z,41.51
2018-07-23T17:31:51.993Z,41.82
2018-07-23T17:34:22.234Z,41.34
2018-07-23T17:36:52.416Z,42.44
2018-07-23T17:39:22.459Z,42.11
2018-07-23T17:41:52.443Z,42.56
2018-07-23T17:44:23.154Z,42.30
2018-07-23T17:46:53.153Z,43.18
2018-07-23T17:49:23.176Z,42.70
2018-07-23T17:51:53.226Z,44.14
2018-07-23T17:54:23.316Z,43.98
2018-07-23T17:56:53.259Z,44.45
2018-07-23T17:59:23.123Z,43.91
2018-07-23T18:01:53.011Z,44.42
2018-07-23T18:04:24.980Z,44.79
2018-07-23T18:06:54.912Z,43.95
2018-07-23T18:09:24.903Z,44.82
2018-07-23T18:11:54.951Z,45.12
2018-07-23T18:14:24.949Z,45.40
2018-07-23T18:16:54.817Z,45.23
2018-07-23T18:19:24.854Z,45.48
2018-07-23T18:21:54.862Z,46.62
2018-07-23T18:24:24.822Z,46.75
2018-07-23T18:26:54.892Z,46.11
2018-07-23T18:29:25.206Z,46.79
2018-07-23T18:31:55.525Z,46.04
2018-07-23T18:34:26.333Z,46.94
2018-07-23T18:36:56.871Z,46.54
2018-07-23T18:39:26.793Z,46.78
2018-07-23T18:46:30.472Z,47.91
2018-07-23T18:49:22.677Z,47.01
2018-07-23T18:51:53.880Z,47.82
2018-07-23T18:54:25.125Z,46.67
2018-07-23T18:56:56.371Z,47.50
2018-07-23T18:59:26.524Z,47.87
2018-07-23T19:01:57.292Z,47.46
2018-07-23T19:04:27.268Z,47.77
2018-07-23T19:06:57.198Z,48.82
2018-07-23T19:09:28.512Z,48.34
2018-07-23T19:11:59.094Z,48.04
2018-07-23T19:14:29.154Z,48.79
2018-07-23T19:17:00.061Z,49.64
2018-07-23T19:19:30.576Z,49.70
2018-07-23T19:22:00.652Z,50.29
2018-07-23T19:24:30.736Z,50.11
2018-07-23T19:27:01.017Z,50.18
2018-07-23T19:29:36.006Z,50.07
2018-07-23T19:32:06.141Z,50.00
2018-07-23T19:34:36.246Z,50.27
2018-07-23T19:37:06.455Z,50.24
2018-07-23T19:39:36.911Z,49.64
2018-07-23T19:42:08.601Z,50.18
2018-07-23T19:44:38.656Z,51.11
2018-07-23T19:47:09.943Z,50.40
2018-07-23T19:49:40.111Z,49.90
2018-07-23T19:52:10.790Z,51.13
2018-07-23T19:54:49.927Z,50.85
2018-07-23T19:57:26.698Z,49.94
2018-07-23T19:59:57.794Z,50.55
2018-07-23T20:02:27.734Z,50.97
2018-07-23T20:04:57.746Z,50.44
2018-07-23T20:07:27.907Z,50.73
2018-07-23T20:10:11.345Z,50.79
2018-07-23T20:34:23.839Z,51.95
2018-07-23T20:37:19.232Z,52.17
2018-07-23T20:40:04.113Z,52.32
2018-07-23T20:42:35.689Z,52.97
2018-07-23T20:45:05.772Z,53.71
2018-07-23T20:47:36.667Z,52.79
2018-07-23T20:50:35.564Z,52.79
2018-07-23T20:53:11.031Z,52.60
2018-07-23T20:59:23.023Z,53.08
2018-07-23T21:01:56.916Z,53.81
2018-07-23T21:10:22.329Z,54.08
2018-07-23T21:12:52.643Z,53.77
2018-07-23T21:16:11.577Z,54.09
2018-07-23T21:19:08.222Z,53.04
2018-07-23T21:22:09.755Z,53.66
2018-07-23T21:24:48.320Z,52.64
2018-07-23T21:27:25.047Z,53.10
2018-07-23T21:29:57.163Z,53.35
2018-07-23T21:32:30.840Z,53.14
2018-07-23T21:35:03.150Z,52.88
2018-07-23T21:43:36.783Z,52.34
2018-07-23T21:46:12.107Z,53.14
2018-07-23T21:48:52.433Z,54.45
2018-07-23T21:51:42.251Z,53.72
2018-07-23T21:54:20.595Z,54.13
2018-07-23T21:56:51.912Z,53.57
2018-07-23T21:59:26.129Z,54.35
2018-07-23T22:01:57.497Z,53.83
2018-07-23T22:04:29.764Z,53.76
2018-07-23T22:07:00.636Z,53.62
2018-07-23T22:09:31.422Z,54.42
2018-07-23T22:12:11.901Z,54.50
2018-07-23T22:14:45.613Z,53.67
2018-07-23T22:17:16.964Z,54.26
2018-07-23T22:19:53.857Z,54.23
2018-07-23T22:22:24.907Z,54.64
2018-07-23T22:25:07.774Z,55.15
2018-07-23T22:27:52.563Z,54.56
2018-07-23T22:30:26.919Z,53.85
2018-07-23T22:33:11.775Z,54.40
2018-07-23T22:35:43.140Z,55.11
2018-07-23T22:41:07.020Z,55.41
2018-07-23T22:43:39.281Z,55.01
2018-07-23T22:46:17.548Z,56.03
2018-07-23T22:48:48.168Z,55.84
2018-07-23T22:51:25.096Z,55.86
2018-07-23T22:54:12.161Z,54.49
2018-07-23T22:56:43.642Z,55.59
2018-07-23T22:59:14.283Z,55.31
2018-07-23T23:01:44.746Z,54.47
2018-07-23T23:04:15.716Z,54.83
2018-07-23T23:06:46.208Z,54.71
2018-07-23T23:09:22.299Z,54.43
2018-07-23T23:11:53.067Z,55.50
2018-07-23T23:14:32.997Z,55.10
2018-07-23T23:17:04.887Z,55.11
2018-07-23T23:19:37.663Z,55.73
2018-07-23T23:22:08.619Z,57.26
2018-07-23T23:24:38.620Z,56.89
2018-07-23T23:27:11.034Z,57.42
2018-07-23T23:29:42.031Z,56.82
2018-07-23T23:32:15.660Z,57.44
2018-07-23T23:34:46.080Z,58.63
2018-07-23T23:38:28.639Z,58.04
2018-07-23T23:41:07.179Z,58.46
2018-07-23T23:43:37.558Z,57.86
2018-07-23T23:46:10.448Z,59.32
2018-07-23T23:48:40.701Z,59.52
2018-07-23T23:51:11.196Z,59.33
2018-07-23T23:53:41.293Z,58.77
2018-07-23T23:56:11.926Z,59.52
2018-07-23T23:58:49.201Z,59.33
